Map

Track Data

SID SEASON NUMBER BASIN SUBBASIN NAME ISO_TIME NATURE LAT LON WMO_WIND WMO_PRES WMO_AGENCY TRACK_TYPE DIST2LAND LANDFALL IFLAG USA_AGENCY USA_ATCF_ID USA_LAT USA_LON USA_RECORD USA_STATUS USA_WIND USA_PRES USA_SSHS USA_R34_NE USA_R34_SE USA_R34_SW USA_R34_NW USA_R50_NE USA_R50_SE USA_R50_SW USA_R50_NW USA_R64_NE USA_R64_SE USA_R64_SW USA_R64_NW USA_POCI USA_ROCI USA_RMW USA_EYE TOKYO_LAT TOKYO_LON TOKYO_GRADE TOKYO_WIND TOKYO_PRES TOKYO_R50_DIR TOKYO_R50_LONG TOKYO_R50_SHORT TOKYO_R30_DIR TOKYO_R30_LONG TOKYO_R30_SHORT TOKYO_LAND CMA_LAT CMA_LON CMA_CAT CMA_WIND CMA_PRES HKO_LAT HKO_LON HKO_CAT HKO_WIND HKO_PRES NEWDELHI_LAT NEWDELHI_LON NEWDELHI_GRADE NEWDELHI_WIND NEWDELHI_PRES NEWDELHI_CI NEWDELHI_DP NEWDELHI_POCI REUNION_LAT REUNION_LON REUNION_TYPE REUNION_WIND REUNION_PRES REUNION_TNUM REUNION_CI REUNION_RMW REUNION_R34_NE REUNION_R34_SE REUNION_R34_SW REUNION_R34_NW REUNION_R50_NE REUNION_R50_SE REUNION_R50_SW REUNION_R50_NW REUNION_R64_NE REUNION_R64_SE REUNION_R64_SW REUNION_R64_NW BOM_LAT BOM_LON BOM_TYPE BOM_WIND BOM_PRES BOM_TNUM BOM_CI BOM_RMW BOM_R34_NE BOM_R34_SE BOM_R34_SW BOM_R34_NW BOM_R50_NE BOM_R50_SE BOM_R50_SW BOM_R50_NW BOM_R64_NE BOM_R64_SE BOM_R64_SW BOM_R64_NW BOM_ROCI BOM_POCI BOM_EYE BOM_POS_METHOD BOM_PRES_METHOD NADI_LAT NADI_LON NADI_CAT NADI_WIND NADI_PRES WELLINGTON_LAT WELLINGTON_LON WELLINGTON_WIND WELLINGTON_PRES DS824_LAT DS824_LON DS824_STAGE DS824_WIND DS824_PRES TD9636_LAT TD9636_LON TD9636_STAGE TD9636_WIND TD9636_PRES TD9635_LAT TD9635_LON TD9635_WIND TD9635_PRES TD9635_ROCI NEUMANN_LAT NEUMANN_LON NEUMANN_CLASS NEUMANN_WIND NEUMANN_PRES MLC_LAT MLC_LON MLC_CLASS MLC_WIND MLC_PRES USA_GUST BOM_GUST BOM_GUST_PER REUNION_GUST REUNION_GUST_PER USA_SEAHGT USA_SEARAD_NE USA_SEARAD_SE USA_SEARAD_SW USA_SEARAD_NW STORM_SPEED STORM_DIR
1888326N29295 1888 62 NA NA NOT_NAMED 1888-11-21 03:00:00 TS 28.8497 -64.5699 spur-split 1163 1163 ______________ -1 7 81
1888326N29295 1888 62 NA NA NOT_NAMED 1888-11-21 06:00:00 TS 28.9000 -64.2000 spur-split 1182 1182 _____________O -1 28.9000 -64.2000 HU 85 7 80
1888326N29295 1888 62 NA NA NOT_NAMED 1888-11-21 09:00:00 TS 28.9574 -63.8350 spur-split 1198 1198 _____________P -1 28.9602 -63.8426 HU 85 6 81
1888326N29295 1888 62 NA NA NOT_NAMED 1888-11-21 12:00:00 TS 29.0000 -63.5000 spur-split 1203 1203 _____________O -1 29.0000 -63.5000 HU 85 6 85
1888326N29295 1888 62 NA NA NOT_NAMED 1888-11-21 15:00:00 TS 29.0074 -63.1849 spur-split 1209 1209 _____________P -1 29.0074 -63.1849 HU 85 5 90
1888326N29295 1888 62 NA NA NOT_NAMED 1888-11-21 18:00:00 TS 29.0000 -62.9000 spur-split 1215 1215 _____________O -1 29.0000 -62.9000 HU 85 5 91
1888326N29295 1888 62 NA NA NOT_NAMED 1888-11-21 21:00:00 TS 28.9999 -62.6425 spur-split 1223 1223 _____________P -1 28.9999 -62.6425 HU 85 4 90
1888326N29295 1888 62 NA NA NOT_NAMED 1888-11-22 00:00:00 TS 29.0000 -62.4000 spur-split 1228 1220 _____________O -1 29.0000 -62.4000 HU 85 4 103
1888326N29295 1888 62 NA NA NOT_NAMED 1888-11-22 03:00:00 TS 28.9097 -62.1790 spur-split 1223 1223 _____________P -1 28.9097 -62.1790 HU 87 4 90
1888326N29295 1888 62 NA NA NOT_NAMED 1888-11-22 06:00:00 TS 29.0000 -61.9000 spur-split 1242 1242 _____________O -1 29.0000 -61.9000 HU 90 8 44
1888326N29295 1888 62 NA NA NOT_NAMED 1888-11-22 09:00:00 TS 29.4794 -61.5389 spur-split 1308 1308 _____________P -1 29.4794 -61.5389 HU 90 14 33
1888326N29295 1888 62 NA NA NOT_NAMED 1888-11-22 12:00:00 TS 30.2000 -61.0000 spur-split 1398 1398 _____________O -1 30.2000 -61.0000 HU 90 965 19 37
1888326N29295 1888 62 NA NA NOT_NAMED 1888-11-22 15:00:00 TS 30.9703 -60.2178 spur-split 1462 1401 _____________P -1 30.9703 -60.2178 HU 90 22 42
1888326N29295 1888 62 NA NA NOT_NAMED 1888-11-22 18:00:00 TS 31.8000 -59.3000 spur-split 1404 1353 _____________O -1 31.8000 -59.3000 HU 90 22 43
1888326N29295 1888 62 NA NA NOT_NAMED 1888-11-22 21:00:00 TS 32.5997 -58.3988 spur-split 1353 1311 _____________P -1 32.5997 -58.3988 HU 87 22 43
1888326N29295 1888 62 NA NA NOT_NAMED 1888-11-23 00:00:00 TS 33.4000 -57.5000 spur-split 1311 1272 _____________O -1 33.4000 -57.5000 HU 85 22 42
1888326N29295 1888 62 NA NA NOT_NAMED 1888-11-23 03:00:00 TS 34.2217 -56.6414 spur-split 1277 1220 _____________P -1 34.2217 -56.6414 HU 82 21 41
1888326N29295 1888 62 NA NA NOT_NAMED 1888-11-23 06:00:00 TS 35.0000 -55.8000 spur-split 1220 1174 _____________O -1 35.0000 -55.8000 HU 80 20 43
1888326N29295 1888 62 NA NA NOT_NAMED 1888-11-23 09:00:00 TS 35.6944 -54.9487 spur-split 1178 1146 _____________P -1 35.6944 -54.9487 HU 77 19 47
1888326N29295 1888 62 NA NA NOT_NAMED 1888-11-23 12:00:00 TS 36.3000 -54.1000 spur-split 1146 1090 _____________O -1 36.3000 -54.1000 HU 75 18 50
1888326N29295 1888 62 NA NA NOT_NAMED 1888-11-23 15:00:00 TS 36.8237 -53.2520 spur-split 1090 1036 _____________P -1 36.8237 -53.2520 HU 72 17 54
1888326N29295 1888 62 NA NA NOT_NAMED 1888-11-23 18:00:00 TS 37.3000 -52.4000 spur-split 1036 _____________O -1 37.3000 -52.4000 HU 70 17 55

About IBTrACS Database

This database is a web-friendly format of International Best Track Archive for Climate Stewardship (IBTrACS), a global best track data archive curated by NOAA dating back to 1842.

Updated: 2021-12-08